KIAB

Mc Connell AFB Airport

Wichita, Kansas, USA
METAR KIAB 201957Z AUTO 29014KT 10SM BKN031 OVC038 23/16 A2997 RMK AO2 SLP142 $
Observed Flight Rules
Aug-20 @ 19:57 UTC (32 minutes ago) Visual Flight Rules
Wind Visibility Clouds
290° at 14 knots 10 miles
  • Broken at 3,100' AGL
  • Overcast at 3,800' AGL
Temperatures Readings
Current 23°C / 73°F
Dewpoint 16°C / 61°F
Humidity 65%
Altimeter 29.97" Hg
Pressure 1014.2 hPa
Elevation 418
METAR KIAB 201957Z AUTO 29014KT 10SM BKN031 OVC038 23/16 A2997 RMK AO2 SLP142 $
Observed Flight Rules
Aug-20 @ 19:57 UTC
(32 minutes ago)
VFR
Wind Visibility
290° at 14 knots 10 miles
Clouds
  • Broken at 3,100' AGL
  • Overcast at 3,800' AGL
Temperature Dewpoint
23°C / 73°F 16°C / 61°F
Humidity Altimeter Pressure
65% 29.97" Hg 1014.2 hPa